Time,TemperatureF,DewpointF,PressureIn,WindDirection,WindDirectionDegrees,WindSpeedMPH,WindSpeedGustMPH,Humidity,HourlyPrecipIn,Conditions,Clouds,dailyrainin,SoftwareType,DateUTC
2013-09-07 00:22:00,64.0,-99.9,-100.00,SSE,165,2.0,4.0,-999,-99.99,,,-99.99,,2013-09-07 07:22:00,
2013-09-07 02:22:00,62.0,-99.9,-100.00,South,173,6.0,7.0,-999,-99.99,,,-99.99,,2013-09-07 09:22:00,
2013-09-07 02:32:00,62.0,-99.9,-100.00,South,173,6.0,7.0,-999,-99.99,,,-99.99,,2013-09-07 09:32:00,
2013-09-07 05:22:00,56.0,-99.9,-100.00,SSE,150,8.0,9.0,-999,-99.99,,,-99.99,,2013-09-07 12:22:00,
2013-09-07 06:00:00,57.0,-99.9,-100.00,North,7,0.0,3.0,-999,-99.99,,,-99.99,,2013-09-07 13:00:00,
2013-09-07 06:12:00,55.0,-99.9,-100.00,North,352,2.0,3.0,-999,-99.99,,,-99.99,,2013-09-07 13:12:00,
2013-09-07 06:52:00,57.0,-99.9,-100.00,North,7,0.0,3.0,-999,-99.99,,,-99.99,,2013-09-07 13:52:00,
2013-09-07 09:24:00,73.0,-99.9,-100.00,NW,305,3.0,4.0,-999,-99.99,,,-99.99,,2013-09-07 16:24:00,
2013-09-07 09:34:00,73.0,-99.9,-100.00,NW,305,3.0,4.0,-999,-99.99,,,-99.99,,2013-09-07 16:34:00,
2013-09-07 09:43:00,73.0,-99.9,-100.00,NW,305,3.0,4.0,-999,-99.99,,,-99.99,,2013-09-07 16:43:00,
2013-09-07 15:24:00,95.0,-99.9,-100.00,SE,141,16.0,20.0,-999,-99.99,,,-99.99,,2013-09-07 22:24:00,
2013-09-07 15:43:00,94.0,-99.9,-100.00,SE,129,10.0,20.0,-999,-99.99,,,-99.99,,2013-09-07 22:43:00,
2013-09-07 15:53:00,94.0,-99.9,-100.00,SE,129,10.0,20.0,-999,-99.99,,,-99.99,,2013-09-07 22:53:00,
2013-09-07 16:23:00,95.0,-99.9,-100.00,SE,129,18.0,21.0,-999,-99.99,,,-99.99,,2013-09-07 23:23:00,
2013-09-07 16:34:00,95.0,-99.9,-100.00,SE,129,18.0,21.0,-999,-99.99,,,-99.99,,2013-09-07 23:34:00,
2013-09-07 17:22:00,91.0,-99.9,-100.00,SE,127,16.0,21.0,-999,-99.99,,,-99.99,,2013-09-08 00:22:00,
2013-09-07 17:33:00,91.0,-99.9,-100.00,SE,127,16.0,21.0,-999,-99.99,,,-99.99,,2013-09-08 00:33:00,
2013-09-07 17:43:00,91.0,-99.9,-100.00,SE,127,16.0,21.0,-999,-99.99,,,-99.99,,2013-09-08 00:43:00,
2013-09-07 17:50:00,87.0,-99.9,-100.00,SE,146,18.0,28.0,-999,-99.99,,,-99.99,,2013-09-08 00:50:00,
2013-09-07 17:52:00,90.0,-99.9,-100.00,ESE,118,21.0,21.0,-999,-99.99,,,-99.99,,2013-09-08 00:52:00,
2013-09-07 18:12:00,88.0,-99.9,-100.00,SSW,200,6.0,21.0,-999,-99.99,,,-99.99,,2013-09-08 01:12:00,
2013-09-07 18:22:00,88.0,-99.9,-100.00,SSW,200,6.0,21.0,-999,-99.99,,,-99.99,,2013-09-08 01:22:00,
2013-09-07 18:42:00,87.0,-99.9,-100.00,SE,146,18.0,28.0,-999,-99.99,,,-99.99,,2013-09-08 01:42:00,
2013-09-07 21:24:00,76.0,-99.9,-100.00,SE,143,11.0,14.0,-999,-99.99,,,-99.99,,2013-09-08 04:24:00,
2013-09-07 21:44:00,76.0,-99.9,-100.00,SSE,152,8.0,12.0,-999,-99.99,,,-99.99,,2013-09-08 04:44:00,
2013-09-07 21:54:00,76.0,-99.9,-100.00,SSE,152,8.0,12.0,-999,-99.99,,,-99.99,,2013-09-08 04:54:00,
2013-09-07 23:13:00,73.0,-99.9,-100.00,SSE,150,10.0,14.0,-999,-99.99,,,-99.99,,2013-09-08 06:13:00,